Latest Coastal Weather Observations for Darwin Harbour

IDD60701

Issued at 2:31 am CST Monday 15 February 2016 (issued every 10 minutes, with the page automatically refreshed every 10 minutes)

About coastal observations | Map of coastal stations | Coastal observations for NT | Marine services | Other Formats
Station Details ID: 014072 Name: DARWIN NTC AWS Lat: -12.47 Lon: 130.85 Height: 0.0 m
Data from the previous 72 hours. | See also: Recent months for locations in Northern Territory
Date/Time
CST
Temp

°C
Wind Pressure Rain
since 9am
mm
Weather Cloud Vis
km
Sea
Height
m
Swell
Dir
 
Speed
knots
Gust
knots
hPa Trend Height
m
Period
s
Dir
15/02:30am 28.8 NW 3 5 1007.6 - - - - - - - - -
15/02:00am 28.6 NNW 3 5 1008.0 - - - - - - - - -
15/01:30am 28.6 NW 5 7 1008.3 - - - - - - - - -
15/01:00am 28.4 WNW 8 12 1008.4 - - - - - - - - -
15/12:30am 28.4 NNW 3 6 1009.2 - - - - - - - - -
15/12:00am 28.2 WNW 4 7 1009.4 - - - - - - - - -
 
Date/Time
CST
Temp

°C
Wind Pressure Rain
since 9am
mm
Weather Cloud Vis
km
Sea
Height
m
Swell
Dir
 
Speed
knots
Gust
knots
hPa Trend Height
m
Period
s
Dir
14/11:30pm 28.4 NW 5 8 1009.9 - - - - - - - - -
14/11:00pm 26.9 WNW 8 11 1009.6 - - - - - - - - -
14/10:30pm 26.7 WNW 3 5 1010.3 - - - - - - - - -
14/10:00pm 25.9 NE 3 5 1011.1 - - - - - - - - -
14/09:30pm 25.4 ENE 4 9 1011.8 - - - - - - - - -
14/09:00pm 25.2 E 20 29 1011.8 - - - - - - - - -
14/08:55pm 24.6 E 26 37 1011.6 - - - - - - - - -
14/08:30pm 26.0 E 25 32 1010.7 - - - - - - - - -
14/08:00pm 26.8 E 29 37 1009.8 - - - - - - - - -
14/07:54pm 27.8 E 27 37 1009.5 - - - - - - - - -
14/07:50pm 27.9 E 31 45 1009.4 - - - - - - - - -
14/07:44pm 27.9 ESE 26 45 1009.4 - - - - - - - - -
14/07:41pm 29.0 SE 17 42 1009.1 - - - - - - - - -
14/07:39pm 30.3 SSE 10 29 1009.4 - - - - - - - - -
14/07:38pm 30.2 SSE 8 22 1009.5 - - - - - - - - -
14/07:30pm 29.9 W 5 8 1008.0 - - - - - - - - -
14/07:00pm 29.8 WSW 8 12 1007.2 - - - - - - - - -
14/06:30pm 30.7 W 7 10 1006.5 - - - - - - - - -
14/06:00pm 30.4 WSW 8 10 1005.4 - - - - - - - - -
14/05:30pm 31.2 W 14 17 1005.0 - - - - - - - - -
14/05:00pm 32.0 WSW 15 19 1005.5 - - - - - - - - -
14/04:30pm 32.3 W 13 17 1005.3 - - - - - - - - -
14/04:00pm 32.4 W 12 17 1004.7 - - - - - - - - -
14/03:30pm 32.3 W 11 15 1005.4 - - - - - - - - -
14/03:00pm 32.3 W 10 12 1005.9 - - - - - - - - -
14/02:30pm 32.4 W 11 14 1006.4 - - - - - - - - -
14/02:00pm 32.6 WNW 12 15 1006.7 - - - - - - - - -
14/01:30pm 32.7 WNW 11 14 1006.9 - - - - - - - - -
14/01:00pm 32.7 W 7 9 1007.5 - - - - - - - - -
14/12:30pm 32.5 W 8 10 1007.7 - - - - - - - - -
14/12:00pm 32.1 W 4 7 1008.1 - - - - - - - - -
14/11:30am 31.9 WSW 5 6 1008.4 - - - - - - - - -
14/11:00am 31.6 W 6 8 1008.6 - - - - - - - - -
14/10:30am 31.4 W 7 9 1008.4 - - - - - - - - -
14/10:00am 31.1 WSW 6 7 1008.5 - - - - - - - - -
14/09:30am 30.1 SW 3 4 1008.6 - - - - - - - - -
14/09:00am 30.1 W 4 5 1008.4 - - - - - - - - -
14/08:30am 29.8 W 6 8 1008.1 - - - - - - - - -
14/08:00am 29.7 WNW 7 11 1007.3 - - - - - - - - -
14/07:30am 29.5 W 6 8 1007.6 - - - - - - - - -
14/07:00am 29.5 W 6 10 1007.3 - - - - - - - - -
14/06:30am 29.5 W 6 9 1007.1 - - - - - - - - -
14/06:00am 29.4 W 6 9 1007.0 - - - - - - - - -
14/05:30am 29.4 W 6 9 1006.8 - - - - - - - - -
14/05:00am 29.4 WSW 5 6 1006.4 - - - - - - - - -
14/04:30am 29.4 W 5 7 1006.3 - - - - - - - - -
14/04:00am 29.6 W 6 8 1006.3 - - - - - - - - -
14/03:30am 29.5 W 6 8 1006.4 - - - - - - - - -
14/03:00am 29.6 W 7 9 1006.5 - - - - - - - - -
14/02:30am 29.6 W 6 10 1006.7 - - - - - - - - -
14/02:00am 29.6 W 8 11 1007.0 - - - - - - - - -
14/01:30am 29.6 W 10 12 1007.4 - - - - - - - - -
14/01:00am 29.6 W 11 15 1007.9 - - - - - - - - -
14/12:30am 29.6 WSW 9 12 1008.2 - - - - - - - - -
14/12:00am 29.5 W 9 11 1008.5 - - - - - - - - -
 
Date/Time
CST
Temp

°C
Wind Pressure Rain
since 9am
mm
Weather Cloud Vis
km
Sea
Height
m
Swell
Dir
 
Speed
knots
Gust
knots
hPa Trend Height
m
Period
s
Dir
13/11:30pm 29.3 W 9 11 1008.7 - - - - - - - - -
13/11:00pm 29.4 W 8 12 1008.6 - - - - - - - - -
13/10:30pm 29.5 W 9 12 1008.6 - - - - - - - - -
13/10:00pm 29.5 WNW 9 13 1008.4 - - - - - - - - -
13/09:30pm 29.3 WNW 7 9 1008.2 - - - - - - - - -
13/09:00pm 28.4 WNW 7 9 1007.9 - - - - - - - - -
13/08:30pm 27.4 WNW 5 8 1008.1 - - - - - - - - -
13/08:00pm 27.3 N 5 8 1008.3 - - - - - - - - -
13/07:30pm 25.9 ENE 13 25 1008.1 - - - - - - - - -
13/07:07pm 29.0 N 9 35 1007.8 - - - - - - - - -
13/07:00pm 30.7 W 9 13 1007.7 - - - - - - - - -
13/06:30pm 30.8 W 12 15 1006.4 - - - - - - - - -
13/06:00pm 31.2 W 11 14 1006.6 - - - - - - - - -
13/05:30pm 31.1 W 11 15 1006.1 - - - - - - - - -
13/05:00pm 31.0 W 12 17 1006.1 - - - - - - - - -
13/04:30pm 31.3 W 13 17 1005.9 - - - - - - - - -
13/04:00pm 31.4 W 12 16 1006.1 - - - - - - - - -
13/03:30pm 31.9 W 11 14 1006.1 - - - - - - - - -
13/03:00pm 32.9 WNW 9 13 1006.3 - - - - - - - - -
13/02:30pm 32.7 W 8 11 1006.4 - - - - - - - - -
13/02:00pm 32.3 W 7 10 1006.5 - - - - - - - - -
13/01:30pm 32.0 WNW 4 7 1006.9 - - - - - - - - -
13/01:00pm 31.9 NW 3 8 1007.4 - - - - - - - - -
13/12:30pm 31.2 NW 4 8 1007.9 - - - - - - - - -
13/12:00pm 30.3 WNW 5 7 1008.3 - - - - - - - - -
13/11:30am 30.3 NW 4 6 1008.6 - - - - - - - - -
13/11:00am 29.6 WNW 4 6 1009.0 - - - - - - - - -
13/10:30am 29.1 W 5 7 1009.2 - - - - - - - - -
13/10:00am 28.8 W 5 8 1009.1 - - - - - - - - -
13/09:30am 29.2 WSW 4 7 1009.4 - - - - - - - - -
13/09:00am 28.8 W 3 5 1009.7 - - - - - - - - -
13/08:30am 28.8 WSW 1 2 1009.6 - - - - - - - - -
13/08:00am 27.9 NNE 3 7 1009.4 - - - - - - - - -
13/07:30am 27.0 NE 6 9 1009.2 - - - - - - - - -
13/07:00am 27.5 ESE 4 9 1008.3 - - - - - - - - -
13/06:30am 29.1 S 7 9 1007.7 - - - - - - - - -
13/06:00am 29.3 SSW 6 9 1007.0 - - - - - - - - -
13/05:30am 29.2 SSW 5 7 1006.7 - - - - - - - - -
13/05:00am 29.4 SW 7 9 1006.6 - - - - - - - - -
13/04:30am 29.6 WSW 6 8 1006.2 - - - - - - - - -
13/04:00am 29.7 WSW 7 9 1006.0 - - - - - - - - -
13/03:30am 29.7 WSW 6 9 1005.9 - - - - - - - - -
13/03:00am 29.9 WSW 8 11 1006.2 - - - - - - - - -
13/02:30am 29.8 WSW 8 11 1006.3 - - - - - - - - -
13/02:00am 29.8 WSW 6 9 1006.8 - - - - - - - - -
13/01:30am 29.7 W 5 9 1007.0 - - - - - - - - -
13/01:00am 29.6 W 6 8 1007.3 - - - - - - - - -
13/12:30am 29.9 W 6 9 1007.7 - - - - - - - - -
13/12:00am 30.0 WNW 6 9 1008.0 - - - - - - - - -
 
Date/Time
CST
Temp

°C
Wind Pressure Rain
since 9am
mm
Weather Cloud Vis
km
Sea
Height
m
Swell
Dir
 
Speed
knots
Gust
knots
hPa Trend Height
m
Period
s
Dir
12/11:30pm 29.8 WNW 6 8 1008.2 - - - - - - - - -
12/11:00pm 29.9 W 7 9 1008.0 - - - - - - - - -
12/10:30pm 30.0 WNW 6 10 1007.9 - - - - - - - - -
12/10:00pm 30.2 W 6 9 1007.9 - - - - - - - - -
12/09:30pm 30.1 W 7 9 1007.8 - - - - - - - - -
12/09:00pm 30.1 W 8 10 1007.4 - - - - - - - - -
12/08:30pm 30.1 W 8 10 1006.9 - - - - - - - - -
12/08:00pm 30.3 WNW 6 9 1006.6 - - - - - - - - -
12/07:30pm 30.3 WNW 5 9 1006.1 - - - - - - - - -
12/07:00pm 30.4 WNW 6 10 1005.8 - - - - - - - - -
12/06:30pm 29.6 W 4 6 1005.7 - - - - - - - - -
12/06:00pm 29.4 WSW 5 7 1005.3 - - - - - - - - -
12/05:30pm 30.3 W 8 11 1005.1 - - - - - - - - -
12/05:00pm 30.2 W 7 9 1005.0 - - - - - - - - -
12/04:30pm 29.6 W 5 8 1004.9 - - - - - - - - -
12/04:00pm 29.2 WSW 8 11 1005.1 - - - - - - - - -
12/03:30pm 29.9 W 8 11 1005.1 - - - - - - - - -
12/03:00pm 30.9 WNW 10 15 1005.4 - - - - - - - - -
12/02:30pm 30.8 WNW 10 16 1005.7 - - - - - - - - -
12/02:00pm 32.4 WNW 4 10 1005.9 - - - - - - - - -
12/01:30pm 31.4 W 5 9 1006.2 - - - - - - - - -
12/01:00pm 31.2 W 4 8 1006.5 - - - - - - - - -
12/12:30pm 30.8 W 1 2 1006.9 - - - - - - - - -
12/12:00pm 30.2 W 2 4 1007.4 - - - - - - - - -
12/11:30am 30.3 SW 2 3 1007.9 - - - - - - - - -
12/11:00am 29.8 S 2 3 1008.1 - - - - - - - - -
12/10:30am 29.9 ESE 3 5 1008.4 - - - - - - - - -
12/10:00am 29.4 ESE 5 7 1008.7 - - - - - - - - -
12/09:30am 28.7 ESE 7 9 1008.8 - - - - - - - - -
12/09:00am 28.4 E 7 9 1008.7 - - - - - - - - -
12/08:30am 28.3 ESE 4 6 1008.5 - - - - - - - - -
12/08:00am 27.9 ESE 6 7 1008.0 - - - - - - - - -
12/07:30am 27.3 E 7 10 1007.7 - - - - - - - - -
12/07:00am 27.6 ESE 7 10 1007.5 - - - - - - - - -
12/06:30am 27.5 ESE 5 7 1007.3 - - - - - - - - -
12/06:00am 27.8 ESE 7 10 1007.1 - - - - - - - - -
12/05:30am 28.6 SSE 5 7 1006.8 - - - - - - - - -
12/05:00am 29.0 WSW 2 4 1006.5 - - - - - - - - -
12/04:30am 28.9 WSW 3 4 1006.3 - - - - - - - - -
12/04:00am 28.9 W 5 7 1006.1 - - - - - - - - -
12/03:30am 28.7 W 6 8 1005.8 - - - - - - - - -
12/03:00am 28.9 W 7 9 1006.0 - - - - - - - - -

Other Formats:

Comma delimited format used in spreadsheet applications
http://www.bom.gov.au/fwo/IDD60701/IDD60701.95122.axf

JavaScript Object Notation format (JSON) in row-major order
http://www.bom.gov.au/fwo/IDD60701/IDD60701.95122.json